Aérodrome :
LOGIN :

S'inscrire | Disclaimer

   EN    FR    IT 

 










Légende :    VFR   VFR Marginal   IFR   IFR Intensif   IFR Très Intensif
Visi : 
Plafond : 
>= 8 km
>= 3000ft
5 à 8 km
1000 à 3000 ft
1500m à 5 km
500 à 1000 ft
800 à 1500m
200 à 500 ft
< 800m
< 200 ft
Symboles :   Orages  Brouillard  Fortes neiges  Fortes précipitations  Vent > 20 kt
SIGMETs :   Divers  Orages  Givrage  Turbulence  Onde Orograph.  Cendres Volcan.






- Altitude de l'aérodrome : 82 ft
- Code IATA : QIE


LFMI - Istres

DERNIER METAR :
  • 120000Z AUTO 31006KT 9999 FEW034 04/03 Q1011 NOSIG

METARs EXPIRÉS :
  • 112330Z AUTO 31006KT 9000 -RA BKN038/// BKN052/// OVC082/// ///TCU 04/04 Q1012 BECMG NSC
  • 112300Z AUTO 33006KT 9999 BKN044 OVC050 04/03 Q1012 NOSIG
  • 112230Z AUTO 33007KT CAVOK 04/03 Q1013 NOSIG
  • 112200Z AUTO 30008KT 8000 NSC 03/03 Q1012 NOSIG
  • 112130Z AUTO 28008KT 5000 BR NSC 03/02 Q1013 NOSIG

TAF TAF LFMI
Valide du 11 à 21h jusqu'au 12 à 21h UTC


112000Z 1121/1221 30010KT CAVOK
BECMG 1218/1221 08010KT BKN010



MET'MAP, la Météo Aéronautique d'un coup d'oeil ! - Copyright ORBIFLY Décembre 2007 - Disclaimer

ORBIFLY MET'MAP TEAM :

Programmation & Développement : Alexandra Zaïnal
Sur une idée originale de : Baudouin d'Aumeries
Assistance à la programmation : Marc-Olivier Méhu
Soutien technique & logistique : Manuel Goepfert

Contact : metmap@orbifly.com




SOURCES & CREDITS :

   NOAA